Time;durP1;ratioP1;P1;durP2;ratioP2;P2;SDS_P1;SDS_P2;PMS_P1;PMS_P2;Temp;Humidity;BMP_temperature;BMP_pressure;BME280_temperature;BME280_humidity;BME280_pressure;Samples;Min_cycle;Max_cycle;Signal;HPM_P1;HPM_P2
2020/12/26 00:00:57;;;;;;;4.07;2.80;;;6.00;99.90;;;;;;6246861;23;20000;-83
2020/12/26 00:03:23;;;;;;;3.95;3.40;;;6.00;99.90;;;;;;6245479;23;20016;-83
2020/12/26 00:05:49;;;;;;;11.05;4.25;;;6.00;99.90;;;;;;6244484;23;20014;-83
2020/12/26 00:08:15;;;;;;;6.35;4.10;;;6.00;99.90;;;;;;6247054;22;20004;-83
2020/12/26 00:10:40;;;;;;;6.97;3.78;;;6.00;99.90;;;;;;6245028;23;20054;-83
2020/12/26 00:13:06;;;;;;;4.38;3.70;;;5.90;99.90;;;;;;6245196;23;20004;-83
2020/12/26 00:15:32;;;;;;;3.20;2.90;;;6.00;99.90;;;;;;6245315;23;20000;-83
2020/12/26 00:17:57;;;;;;;2.78;2.58;;;5.90;99.90;;;;;;6245534;23;20005;-84
2020/12/26 00:20:23;;;;;;;8.63;3.83;;;6.00;99.90;;;;;;6246985;23;20027;-83
2020/12/26 00:22:50;;;;;;;6.53;3.30;;;6.00;99.90;;;;;;6246808;23;20451;-83
2020/12/26 00:25:16;;;;;;;5.45;2.97;;;6.00;99.90;;;;;;6246647;22;20005;-83
2020/12/26 00:27:41;;;;;;;3.55;2.88;;;6.00;99.90;;;;;;6245279;23;20004;-83
2020/12/26 00:30:07;;;;;;;2.57;2.37;;;6.00;99.90;;;;;;6245306;23;20004;-83
2020/12/26 00:32:34;;;;;;;2.22;2.03;;;6.00;99.90;;;;;;6244971;23;20052;-83
2020/12/26 00:35:00;;;;;;;4.38;3.17;;;6.00;99.90;;;;;;6246425;22;20447;-83
2020/12/26 00:37:26;;;;;;;2.47;2.28;;;5.90;99.90;;;;;;6244927;23;20074;-83
2020/12/26 00:39:51;;;;;;;2.65;1.90;;;5.90;99.90;;;;;;6244979;23;20571;-83
2020/12/26 00:42:17;;;;;;;2.92;2.28;;;5.90;99.90;;;;;;6246803;23;20054;-83
2020/12/26 00:44:43;;;;;;;2.90;2.60;;;5.90;99.90;;;;;;6244853;23;20027;-83
2020/12/26 00:47:08;;;;;;;4.43;3.22;;;5.80;99.90;;;;;;6246410;23;20305;-83
2020/12/26 00:49:34;;;;;;;3.88;2.85;;;5.80;99.90;;;;;;6246690;23;20000;-83
2020/12/26 00:51:59;;;;;;;3.33;3.03;;;5.80;99.90;;;;;;6246546;23;20006;-83
2020/12/26 00:54:25;;;;;;;3.38;2.75;;;5.70;99.90;;;;;;6244742;23;20086;-83
2020/12/26 00:56:51;;;;;;;3.05;2.67;;;5.70;99.90;;;;;;6246575;23;20027;-83
2020/12/26 00:59:16;;;;;;;3.67;2.00;;;5.60;99.90;;;;;;6246715;23;20004;-83
2020/12/26 01:01:42;;;;;;;1.67;1.58;;;5.50;99.90;;;;;;6246454;23;20110;-83
2020/12/26 01:04:08;;;;;;;5.72;3.60;;;5.60;99.90;;;;;;6246451;23;20581;-83
2020/12/26 01:06:33;;;;;;;2.47;2.28;;;5.60;99.90;;;;;;6246200;23;20424;-83
2020/12/26 01:08:59;;;;;;;2.00;1.80;;;5.60;99.90;;;;;;6244459;23;20004;-83
2020/12/26 01:11:25;;;;;;;3.17;2.47;;;5.70;99.90;;;;;;6246552;22;20440;-83
2020/12/26 01:13:51;;;;;;;4.35;2.63;;;5.70;99.90;;;;;;6246270;23;20012;-83
2020/12/26 01:16:17;;;;;;;4.07;2.97;;;5.80;99.90;;;;;;6246426;23;20058;-83
2020/12/26 01:18:42;;;;;;;4.25;2.88;;;5.80;99.90;;;;;;6244905;23;20004;-83
2020/12/26 01:21:12;;;;;;;3.92;2.95;;;5.80;99.90;;;;;;6246222;23;20008;-84
2020/12/26 01:23:41;;;;;;;2.72;2.53;;;5.80;99.90;;;;;;6246109;22;20433;-83
2020/12/26 01:26:07;;;;;;;3.60;2.72;;;5.70;99.90;;;;;;6246278;22;20007;-83
2020/12/26 01:28:32;;;;;;;2.70;2.50;;;5.80;99.90;;;;;;6246350;23;20005;-83
2020/12/26 01:30:58;;;;;;;2.22;2.13;;;5.70;99.90;;;;;;6244555;23;20387;-83
2020/12/26 01:33:23;;;;;;;2.25;2.05;;;5.70;99.90;;;;;;6244480;23;20000;-83
2020/12/26 01:35:49;;;;;;;2.63;1.75;;;5.70;99.90;;;;;;6245946;23;20008;-83
2020/12/26 01:38:15;;;;;;;1.92;1.83;;;5.70;99.90;;;;;;6246262;23;20007;-84
2020/12/26 01:40:50;;;;;;;2.58;2.17;;;5.70;99.90;;;;;;6246135;23;20337;-83
2020/12/26 01:43:16;;;;;;;2.00;1.90;;;5.80;99.90;;;;;;6244559;23;20091;-83
2020/12/26 01:45:43;;;;;;;2.15;1.95;;;5.70;99.90;;;;;;6246130;22;20024;-84
2020/12/26 01:48:13;;;;;;;3.17;1.90;;;5.80;99.90;;;;;;6244542;23;20310;-83
2020/12/26 01:50:40;;;;;;;2.40;2.20;;;5.70;99.90;;;;;;6245787;22;20086;-83
2020/12/26 01:53:06;;;;;;;2.53;2.05;;;5.70;99.90;;;;;;6244482;23;20004;-83
2020/12/26 01:55:31;;;;;;;2.22;2.13;;;5.60;99.90;;;;;;6245845;23;20489;-83
2020/12/26 01:57:57;;;;;;;2.53;2.15;;;5.60;99.90;;;;;;6245987;23;20368;-83
2020/12/26 02:00:23;;;;;;;1.65;1.55;;;5.60;99.90;;;;;;6246030;23;20002;-83
2020/12/26 02:02:49;;;;;;;1.77;1.67;;;5.60;99.90;;;;;;6246057;23;20000;-83
2020/12/26 02:05:16;;;;;;;2.00;1.73;;;5.70;99.90;;;;;;6245958;22;20046;-83
2020/12/26 02:07:44;;;;;;;2.55;1.48;;;5.70;99.90;;;;;;6244453;23;20000;-83
2020/12/26 02:10:10;;;;;;;1.30;1.30;;;5.80;99.90;;;;;;6244292;23;20000;-83
2020/12/26 02:12:35;;;;;;;1.90;1.45;;;5.80;99.90;;;;;;6245985;22;20008;-83
2020/12/26 02:15:01;;;;;;;1.48;1.35;;;5.80;99.90;;;;;;6245890;23;20004;-83
2020/12/26 02:17:28;;;;;;;1.48;1.38;;;5.80;99.90;;;;;;6245968;23;20007;-83
2020/12/26 02:19:54;;;;;;;2.58;1.70;;;5.80;99.90;;;;;;6245764;22;20340;-83
2020/12/26 02:22:20;;;;;;;1.80;1.70;;;5.80;99.90;;;;;;6245819;23;19996;-83
2020/12/26 02:24:45;;;;;;;1.98;1.80;;;5.80;99.90;;;;;;6245741;23;20000;-83
2020/12/26 02:27:11;;;;;;;2.65;2.45;;;5.80;99.90;;;;;;6245684;23;20035;-83
2020/12/26 02:29:37;;;;;;;2.67;2.33;;;5.80;99.90;;;;;;6244160;23;20000;-83
2020/12/26 02:32:03;;;;;;;2.58;2.38;;;5.80;99.90;;;;;;6245758;23;20000;-83
2020/12/26 02:34:28;;;;;;;2.42;2.08;;;5.80;99.90;;;;;;6245348;23;20000;-83
2020/12/26 02:36:54;;;;;;;2.28;1.73;;;5.80;99.90;;;;;;6245597;23;20466;-84
2020/12/26 02:39:20;;;;;;;2.72;1.88;;;5.70;99.90;;;;;;6244037;23;20051;-83
2020/12/26 02:41:49;;;;;;;1.67;1.58;;;5.70;99.90;;;;;;6245534;23;20004;-83
2020/12/26 02:44:14;;;;;;;1.50;1.40;;;5.70;99.90;;;;;;6244014;23;20486;-83
2020/12/26 02:46:40;;;;;;;1.33;1.33;;;5.80;99.90;;;;;;6244053;23;20011;-83
2020/12/26 02:49:06;;;;;;;1.48;1.38;;;5.80;99.90;;;;;;6245648;23;20019;-83
2020/12/26 02:51:34;;;;;;;3.45;1.58;;;5.80;99.90;;;;;;6245494;22;20004;-83
2020/12/26 02:54:00;;;;;;;1.45;1.35;;;5.70;99.90;;;;;;6245438;22;20027;-83
2020/12/26 02:56:25;;;;;;;1.40;1.30;;;5.70;99.90;;;;;;6245581;22;20004;-83
2020/12/26 02:58:51;;;;;;;1.35;1.25;;;5.70;99.90;;;;;;6245579;23;20011;-83
2020/12/26 03:01:17;;;;;;;1.50;1.40;;;5.80;99.90;;;;;;6245408;23;20609;-83
2020/12/26 03:03:43;;;;;;;1.52;1.42;;;5.80;99.90;;;;;;6243699;23;20459;-83
2020/12/26 03:06:11;;;;;;;1.58;1.45;;;5.80;99.90;;;;;;6245595;22;20004;-83
2020/12/26 03:08:37;;;;;;;1.80;1.70;;;5.80;99.90;;;;;;6245664;22;20000;-83
2020/12/26 03:11:03;;;;;;;2.53;2.40;;;5.90;99.90;;;;;;6243807;23;20004;-83
2020/12/26 03:13:29;;;;;;;2.63;2.53;;;5.80;99.90;;;;;;6245481;23;20070;-83
2020/12/26 03:15:58;;;;;;;3.63;2.70;;;5.80;99.90;;;;;;6243960;23;20083;-83
2020/12/26 03:18:24;;;;;;;3.10;2.90;;;5.80;99.90;;;;;;6244005;23;20436;-83
2020/12/26 03:20:50;;;;;;;2.90;2.70;;;5.90;99.90;;;;;;6245370;22;20054;-83
2020/12/26 03:23:16;;;;;;;3.10;2.90;;;5.90;99.90;;;;;;6245395;22;20004;-83
2020/12/26 03:25:41;;;;;;;3.30;3.00;;;5.90;99.90;;;;;;6245205;22;20443;-83
2020/12/26 03:28:07;;;;;;;3.38;3.17;;;5.90;99.90;;;;;;6245000;23;20046;-83
2020/12/26 03:30:33;;;;;;;3.35;3.00;;;5.90;99.90;;;;;;6244977;23;20039;-83
2020/12/26 03:32:58;;;;;;;3.50;3.30;;;5.90;99.90;;;;;;6245068;23;20031;-83
2020/12/26 03:35:24;;;;;;;3.40;3.08;;;5.90;99.90;;;;;;6243264;23;20012;-83
2020/12/26 03:37:50;;;;;;;3.22;3.03;;;5.90;99.90;;;;;;6243345;23;20004;-83
2020/12/26 03:40:15;;;;;;;4.53;3.33;;;5.90;99.90;;;;;;6245060;23;20082;-83
2020/12/26 03:42:41;;;;;;;3.67;3.38;;;5.90;99.90;;;;;;6243652;23;20001;-84
2020/12/26 03:45:07;;;;;;;3.30;3.10;;;5.90;99.90;;;;;;6245264;23;20000;-83
2020/12/26 03:47:33;;;;;;;3.17;2.97;;;5.90;99.90;;;;;;6245011;23;20004;-83
2020/12/26 03:49:59;;;;;;;3.30;3.00;;;5.90;99.90;;;;;;6244812;23;20107;-83
2020/12/26 03:52:25;;;;;;;2.95;2.75;;;5.90;99.90;;;;;;6244813;23;20012;-83
2020/12/26 03:54:50;;;;;;;3.20;3.00;;;5.90;99.90;;;;;;6246282;22;20339;-83
2020/12/26 03:57:16;;;;;;;3.08;2.78;;;5.90;99.90;;;;;;6246422;23;20424;-83
2020/12/26 03:59:42;;;;;;;2.67;2.50;;;5.80;99.90;;;;;;6244995;23;20008;-83
2020/12/26 04:02:08;;;;;;;3.25;2.58;;;5.80;99.90;;;;;;6246522;22;20050;-83
2020/12/26 04:04:34;;;;;;;3.78;2.75;;;5.70;99.90;;;;;;6246443;23;20003;-83
2020/12/26 04:07:00;;;;;;;2.70;2.50;;;5.60;99.90;;;;;;6246467;22;20010;-83
2020/12/26 04:09:25;;;;;;;2.85;2.70;;;5.60;99.90;;;;;;6246832;22;20028;-83
2020/12/26 04:11:51;;;;;;;2.97;2.78;;;5.40;99.90;;;;;;6246919;23;20432;-83
2020/12/26 04:14:17;;;;;;;3.17;2.60;;;5.40;99.90;;;;;;6246846;23;20436;-83
2020/12/26 04:16:42;;;;;;;3.33;2.83;;;5.30;99.90;;;;;;6244550;23;20008;-83
2020/12/26 04:19:08;;;;;;;2.95;2.60;;;5.40;99.90;;;;;;6245528;23;20050;-83
2020/12/26 04:21:34;;;;;;;2.80;2.60;;;5.40;99.90;;;;;;6246436;23;20008;-83
2020/12/26 04:23:59;;;;;;;2.72;2.30;;;5.40;99.90;;;;;;6246904;22;20440;-83
2020/12/26 04:26:25;;;;;;;2.15;2.00;;;5.30;99.90;;;;;;6246565;23;20082;-83
2020/12/26 04:28:51;;;;;;;2.15;2.05;;;5.30;99.90;;;;;;6246871;23;20007;-83
2020/12/26 04:31:19;;;;;;;2.30;2.10;;;5.10;99.90;;;;;;6245283;23;20008;-83
2020/12/26 04:33:45;;;;;;;3.13;2.00;;;5.10;99.90;;;;;;6245130;23;20463;-83
2020/12/26 04:36:11;;;;;;;2.20;2.10;;;5.10;99.90;;;;;;6246583;23;20062;-83
2020/12/26 04:38:37;;;;;;;2.42;1.92;;;5.10;99.90;;;;;;6245353;23;20000;-83
2020/12/26 04:41:03;;;;;;;2.35;2.15;;;5.00;99.90;;;;;;6245229;23;20466;-83
2020/12/26 04:43:29;;;;;;;2.40;2.30;;;4.90;99.90;;;;;;6246864;22;20054;-83
2020/12/26 04:45:56;;;;;;;1.90;1.80;;;4.90;99.90;;;;;;6245163;23;20438;-83
2020/12/26 04:48:24;;;;;;;1.98;1.60;;;4.90;99.90;;;;;;6246717;22;20340;-83
2020/12/26 04:50:52;;;;;;;1.90;1.80;;;4.90;99.90;;;;;;6246633;22;20005;-83
2020/12/26 04:53:20;;;;;;;1.65;1.65;;;5.00;99.90;;;;;;6246490;22;20000;-83
2020/12/26 04:55:50;;;;;;;2.78;2.08;;;5.00;99.90;;;;;;6246711;22;19996;-83
2020/12/26 04:58:17;;;;;;;1.70;1.60;;;5.00;99.90;;;;;;6246328;22;20332;-83
2020/12/26 05:00:44;;;;;;;1.60;1.50;;;5.00;99.90;;;;;;6245230;23;20038;-83
2020/12/26 05:03:12;;;;;;;1.90;1.80;;;5.00;99.90;;;;;;6246743;22;20000;-83
2020/12/26 05:05:42;;;;;;;2.10;1.92;;;5.00;99.90;;;;;;6246334;22;20008;-83
2020/12/26 05:08:10;;;;;;;2.35;2.20;;;5.10;99.90;;;;;;6246667;22;20008;-84
2020/12/26 05:10:37;;;;;;;2.05;1.92;;;5.00;99.90;;;;;;6246376;22;20027;-83
2020/12/26 05:13:06;;;;;;;2.13;2.03;;;4.90;99.90;;;;;;6244910;23;20004;-83
2020/12/26 05:15:32;;;;;;;2.28;2.03;;;5.00;99.90;;;;;;6244927;23;20000;-83
2020/12/26 05:17:57;;;;;;;2.30;2.10;;;5.00;99.90;;;;;;6244929;23;20008;-83
2020/12/26 05:20:27;;;;;;;1.95;1.85;;;5.00;99.90;;;;;;6246398;23;20000;-83
2020/12/26 05:23:16;;;;;;;2.33;2.22;;;5.10;99.90;;;;;;6246260;22;20007;-83
2020/12/26 05:25:47;;;;;;;1.60;1.50;;;5.00;99.90;;;;;;6246482;22;20341;-84
2020/12/26 05:28:16;;;;;;;2.33;1.67;;;5.00;99.90;;;;;;6246456;22;19996;-83
2020/12/26 05:30:44;;;;;;;0.68;0.63;;;5.00;99.90;;;;;;6244661;23;20008;-82
2020/12/26 05:33:11;;;;;;;1.40;1.15;;;5.10;99.90;;;;;;6244517;23;20087;-83
2020/12/26 05:35:41;;;;;;;2.13;1.92;;;5.50;96.70;;;;;;6246077;22;20015;-84
2020/12/26 05:38:26;;;;;;;2.40;2.20;;;5.40;99.90;;;;;;6246262;22;20000;-84
2020/12/26 05:41:01;;;;;;;1.90;1.80;;;5.40;99.90;;;;;;6246220;22;20008;-83
2020/12/26 05:43:28;;;;;;;1.58;1.48;;;5.40;99.90;;;;;;6244523;23;20012;-84
2020/12/26 05:45:54;;;;;;;1.33;1.33;;;5.30;99.90;;;;;;6246288;22;20071;-83
2020/12/26 05:48:22;;;;;;;0.98;0.65;;;5.40;99.90;;;;;;6244420;23;20074;-83
2020/12/26 05:50:50;;;;;;;0.55;0.55;;;5.60;95.80;;;;;;6244361;23;20004;-83
2020/12/26 05:53:17;;;;;;;0.95;0.95;;;5.70;96.10;;;;;;6244561;23;20050;-83
2020/12/26 05:55:46;;;;;;;1.10;1.10;;;5.70;99.90;;;;;;6246248;22;20483;-83
2020/12/26 05:58:19;;;;;;;1.20;1.20;;;5.70;99.90;;;;;;6246092;22;20036;-83
2020/12/26 06:00:45;;;;;;;1.20;1.15;;;5.60;99.90;;;;;;6246189;22;20032;-83
2020/12/26 06:03:26;;;;;;;0.88;0.88;;;5.50;99.90;;;;;;6245847;22;20007;-83
2020/12/26 06:05:58;;;;;;;0.40;0.40;;;5.40;99.90;;;;;;6244358;23;20004;-83
2020/12/26 06:08:24;;;;;;;0.80;0.80;;;5.60;95.10;;;;;;6246013;22;20475;-84
2020/12/26 06:10:52;;;;;;;0.90;0.90;;;5.70;95.90;;;;;;6245673;22;20242;-83
2020/12/26 06:13:20;;;;;;;0.88;0.88;;;5.60;98.80;;;;;;6245559;22;20024;-83
2020/12/26 06:15:50;;;;;;;0.65;0.65;;;5.60;99.10;;;;;;6245933;22;20027;-83
2020/12/26 06:18:20;;;;;;;1.27;1.20;;;5.60;98.90;;;;;;6245748;22;20004;-83
2020/12/26 06:20:48;;;;;;;0.93;0.93;;;5.60;99.30;;;;;;6245811;22;20032;-83
2020/12/26 06:23:22;;;;;;;0.95;0.95;;;5.60;99.10;;;;;;6244038;23;20004;-83
2020/12/26 06:25:49;;;;;;;1.30;1.20;;;5.60;98.80;;;;;;6244403;23;20042;-83
2020/12/26 06:28:26;;;;;;;1.25;1.25;;;5.50;99.90;;;;;;6244196;23;20085;-83
2020/12/26 06:31:06;;;;;;;0.95;0.95;;;5.40;99.90;;;;;;6245414;22;20061;-83
2020/12/26 06:33:38;;;;;;;0.70;0.70;;;5.50;99.90;;;;;;6245651;22;20000;-83
2020/12/26 06:36:06;;;;;;;0.50;0.50;;;5.50;96.50;;;;;;6245579;22;20012;-83
2020/12/26 06:38:32;;;;;;;0.50;0.50;;;5.80;89.20;;;;;;6245687;22;20587;-83
2020/12/26 06:41:07;;;;;;;0.30;0.30;;;5.80;90.00;;;;;;6245744;22;20062;-83
2020/12/26 06:43:39;;;;;;;0.40;0.40;;;5.90;88.70;;;;;;6245654;22;20004;-82
2020/12/26 06:46:14;;;;;;;0.88;0.40;;;5.90;88.70;;;;;;6245795;22;20043;-83
2020/12/26 06:48:41;;;;;;;0.30;0.30;;;5.90;85.70;;;;;;6245739;23;20008;-83
2020/12/26 06:51:26;;;;;;;0.50;0.50;;;6.00;82.10;;;;;;6245394;22;20004;-83
2020/12/26 06:53:53;;;;;;;0.70;0.70;;;6.00;82.10;;;;;;6245623;22;20023;-83
2020/12/26 06:56:34;;;;;;;1.15;0.60;;;6.10;79.00;;;;;;6245480;22;20042;-83
2020/12/26 06:59:04;;;;;;;0.40;0.40;;;6.10;75.30;;;;;;6245657;23;19996;-83
2020/12/26 07:01:30;;;;;;;0.65;0.60;;;6.20;77.00;;;;;;6244073;23;20008;-83
2020/12/26 07:04:12;;;;;;;0.70;0.70;;;6.20;76.90;;;;;;6245449;22;20007;-83
2020/12/26 07:06:39;;;;;;;0.63;0.63;;;6.20;75.60;;;;;;6244073;23;20440;-83
2020/12/26 07:09:06;;;;;;;0.45;0.45;;;6.20;77.20;;;;;;6244102;23;20066;-83
2020/12/26 07:11:41;;;;;;;0.50;0.50;;;6.10;76.40;;;;;;6245498;22;20011;-83
2020/12/26 07:14:07;;;;;;;1.00;0.50;;;6.10;73.80;;;;;;6245380;22;19996;-83
2020/12/26 07:16:45;;;;;;;0.75;0.70;;;6.10;76.20;;;;;;6245585;23;20079;-83
2020/12/26 07:19:20;;;;;;;3.72;2.60;;;6.00;79.20;;;;;;6244033;23;20428;-83
2020/12/26 07:21:49;;;;;;;1.25;1.17;;;5.90;86.70;;;;;;6246828;22;20015;-83
2020/12/26 07:24:24;;;;;;;2.72;1.60;;;5.80;89.50;;;;;;6247349;23;20007;-83
2020/12/26 07:26:52;;;;;;;2.95;2.75;;;5.80;91.10;;;;;;6247508;22;20024;-83
2020/12/26 07:29:25;;;;;;;3.17;2.97;;;5.80;92.20;;;;;;6245808;23;20008;-82
2020/12/26 07:31:51;;;;;;;2.72;2.53;;;5.70;92.20;;;;;;6245834;23;20008;-83
2020/12/26 07:34:50;;;;;;;2.50;2.30;;;5.60;93.40;;;;;;6245795;23;20424;-83
2020/12/26 07:37:19;;;;;;;3.50;3.30;;;5.50;94.50;;;;;;6180577;22;20021;-82
2020/12/26 07:39:45;;;;;;;2.90;2.70;;;5.40;94.30;;;;;;6247272;23;20065;-82
2020/12/26 07:42:15;;;;;;;2.88;2.67;;;5.30;94.60;;;;;;6247386;23;20007;-83
2020/12/26 07:44:41;;;;;;;2.70;2.50;;;5.30;95.70;;;;;;6247338;22;20000;-82
2020/12/26 07:47:08;;;;;;;2.55;2.35;;;5.30;95.30;;;;;;6245756;23;20011;-82
2020/12/26 07:49:34;;;;;;;1.90;1.80;;;5.30;96.00;;;;;;6246876;22;20008;-82
2020/12/26 07:52:10;;;;;;;1.67;1.58;;;5.30;94.70;;;;;;6245544;23;20331;-83
2020/12/26 07:54:36;;;;;;;7.78;4.68;;;5.40;94.50;;;;;;6247219;22;20004;-83
2020/12/26 07:57:03;;;;;;;3.28;2.97;;;5.40;94.60;;;;;;6247092;22;20310;-83
2020/12/26 07:59:28;;;;;;;3.50;3.03;;;5.40;94.90;;;;;;6247193;22;20032;-83
2020/12/26 08:01:56;;;;;;;4.25;3.00;;;5.50;95.60;;;;;;6245647;23;20011;-83
2020/12/26 08:04:22;;;;;;;3.08;2.78;;;5.40;97.10;;;;;;6245395;23;20008;-82
2020/12/26 08:06:49;;;;;;;2.70;2.50;;;5.40;98.10;;;;;;6247082;22;20039;-82
2020/12/26 08:09:16;;;;;;;2.00;1.80;;;5.40;98.80;;;;;;6247170;22;20428;-82
2020/12/26 08:11:43;;;;;;;2.63;2.10;;;5.50;97.70;;;;;;6246974;22;20000;-82
2020/12/26 08:14:10;;;;;;;2.63;2.42;;;5.50;97.30;;;;;;6246855;22;20000;-83
2020/12/26 08:16:36;;;;;;;2.35;2.00;;;5.60;98.20;;;;;;6246779;22;20003;-83
2020/12/26 08:19:03;;;;;;;3.70;2.20;;;5.60;98.90;;;;;;6245380;23;20058;-82
2020/12/26 08:21:30;;;;;;;2.60;2.30;;;5.60;98.90;;;;;;6245289;23;20008;-83
2020/12/26 08:24:03;;;;;;;3.40;2.13;;;5.60;98.70;;;;;;6246889;22;20011;-83
2020/12/26 08:26:31;;;;;;;2.53;2.33;;;5.70;98.70;;;;;;6246851;22;20004;-82
2020/12/26 08:29:05;;;;;;;2.38;2.25;;;5.70;99.30;;;;;;6246926;22;20748;-82
2020/12/26 08:31:32;;;;;;;2.70;2.50;;;5.70;99.60;;;;;;6246638;22;20432;-82
2020/12/26 08:34:14;;;;;;;2.08;1.90;;;5.70;99.90;;;;;;6246088;22;20340;-82
2020/12/26 08:36:47;;;;;;;2.15;2.05;;;5.70;99.90;;;;;;6243866;23;20066;-82
2020/12/26 08:39:17;;;;;;;3.20;2.03;;;5.70;99.90;;;;;;6245347;22;20425;-82
2020/12/26 08:41:45;;;;;;;2.80;2.60;;;5.80;99.90;;;;;;6242994;23;20075;-82
2020/12/26 08:44:13;;;;;;;3.33;2.92;;;5.80;99.90;;;;;;6244958;22;20004;-82
2020/12/26 08:46:46;;;;;;;3.88;3.15;;;5.80;99.90;;;;;;6245224;22;20437;-82
2020/12/26 08:49:12;;;;;;;3.75;2.80;;;5.80;99.90;;;;;;6244945;22;20064;-83
2020/12/26 08:51:43;;;;;;;4.75;2.70;;;5.80;99.90;;;;;;6242554;23;20375;-82
2020/12/26 08:54:19;;;;;;;4.00;3.40;;;5.80;99.90;;;;;;6245009;22;20023;-82
2020/12/26 08:56:45;;;;;;;4.13;2.92;;;5.80;99.90;;;;;;6245221;22;20083;-83
2020/12/26 08:59:11;;;;;;;2.75;2.55;;;5.90;99.90;;;;;;6245391;22;20000;-83
2020/12/26 09:01:37;;;;;;;2.88;2.40;;;6.00;99.90;;;;;;6243067;23;20008;-83
2020/12/26 09:04:04;;;;;;;3.00;2.55;;;6.00;99.90;;;;;;6244822;22;19996;-83
2020/12/26 09:06:38;;;;;;;1.70;1.60;;;6.10;99.90;;;;;;6243569;23;20066;-82
2020/12/26 09:09:22;;;;;;;2.72;2.53;;;6.20;99.90;;;;;;6244984;22;20332;-82
2020/12/26 09:12:00;;;;;;;2.65;2.45;;;6.20;99.90;;;;;;6244573;22;20004;-83
2020/12/26 09:14:26;;;;;;;1.40;1.30;;;6.20;99.90;;;;;;6243379;23;20006;-83
2020/12/26 09:16:59;;;;;;;2.50;2.05;;;6.30;99.90;;;;;;6244527;23;20079;-83
2020/12/26 09:19:25;;;;;;;1.40;1.30;;;6.50;99.60;;;;;;6242646;23;20050;-82
2020/12/26 09:21:51;;;;;;;1.52;1.42;;;6.60;99.40;;;;;;6243845;22;20733;-82
2020/12/26 09:24:19;;;;;;;1.40;1.30;;;6.60;99.30;;;;;;6243643;23;20077;-81
2020/12/26 09:26:45;;;;;;;1.67;1.45;;;6.70;98.80;;;;;;6246404;22;20008;-81
2020/12/26 09:29:20;;;;;;;1.40;1.30;;;6.70;98.50;;;;;;6243117;23;20721;-82
2020/12/26 09:31:46;;;;;;;1.73;1.63;;;6.80;98.30;;;;;;6244903;22;20004;-82
2020/12/26 09:34:23;;;;;;;1.80;1.70;;;6.80;98.70;;;;;;6244275;23;20788;-82
2020/12/26 09:37:03;;;;;;;1.70;1.58;;;6.90;98.20;;;;;;6242668;23;20762;-82
2020/12/26 09:39:29;;;;;;;2.10;1.92;;;6.90;98.50;;;;;;6244429;22;20072;-82
2020/12/26 09:41:55;;;;;;;2.95;2.38;;;6.90;98.40;;;;;;6243185;22;20028;-82
2020/12/26 09:44:21;;;;;;;2.53;2.15;;;6.90;98.70;;;;;;6244482;22;20004;-82
2020/12/26 09:46:46;;;;;;;2.30;2.10;;;6.80;99.00;;;;;;6244609;23;20008;-82
2020/12/26 09:49:12;;;;;;;3.45;2.40;;;6.70;99.30;;;;;;6244206;23;20028;-82
2020/12/26 09:51:38;;;;;;;3.10;2.30;;;6.70;99.10;;;;;;6243435;23;20391;-82
2020/12/26 09:54:04;;;;;;;1.70;1.60;;;6.70;99.70;;;;;;6244545;23;20436;-82
2020/12/26 09:56:30;;;;;;;1.95;1.85;;;6.70;99.80;;;;;;6240404;23;20635;-76
2020/12/26 09:58:56;;;;;;;3.55;2.00;;;6.70;99.70;;;;;;6237538;22;20702;-76
2020/12/26 10:01:22;;;;;;;2.40;1.85;;;6.80;99.50;;;;;;6244422;22;20357;-79
2020/12/26 10:03:49;;;;;;;2.85;2.65;;;6.80;99.60;;;;;;6240798;23;20015;-76
2020/12/26 10:06:20;;;;;;;5.55;2.35;;;6.80;99.50;;;;;;6244650;22;20004;-76
2020/12/26 10:08:47;;;;;;;5.38;3.10;;;6.80;99.30;;;;;;6242831;22;20079;-76
2020/12/26 10:11:16;;;;;;;3.20;2.70;;;6.80;99.40;;;;;;6239696;23;20705;-76
2020/12/26 10:13:42;;;;;;;5.72;2.90;;;6.80;99.90;;;;;;6238728;23;20015;-76
2020/12/26 10:16:08;;;;;;;2.22;2.03;;;6.80;99.90;;;;;;6241485;22;20039;-76
2020/12/26 10:18:34;;;;;;;2.30;2.10;;;6.80;99.20;;;;;;6240979;22;20073;-76
2020/12/26 10:21:00;;;;;;;4.53;2.33;;;6.80;98.90;;;;;;6239275;23;20015;-76
2020/12/26 10:23:29;;;;;;;2.65;2.45;;;6.90;99.00;;;;;;6240435;23;20079;-76
2020/12/26 10:25:55;;;;;;;2.58;2.38;;;6.90;98.70;;;;;;6238988;23;20618;-76
2020/12/26 10:28:20;;;;;;;2.65;2.13;;;7.00;99.10;;;;;;6238291;23;20005;-76
2020/12/26 10:30:47;;;;;;;2.50;2.20;;;7.00;98.40;;;;;;6239416;23;20023;-76
2020/12/26 10:33:13;;;;;;;2.50;2.30;;;7.00;98.60;;;;;;6222591;22;20024;-92
2020/12/26 10:35:38;;;;;;;1.92;1.83;;;7.00;98.20;;;;;;6215721;23;20347;-91
2020/12/26 10:38:04;;;;;;;2.55;2.35;;;7.10;98.10;;;;;;6234369;23;20000;-77
2020/12/26 10:40:30;;;;;;;2.50;2.30;;;7.10;98.90;;;;;;6207602;23;20331;-77
2020/12/26 10:42:56;;;;;;;2.40;2.20;;;7.10;99.40;;;;;;6233594;23;20078;-76
2020/12/26 10:45:21;;;;;;;2.35;2.15;;;7.20;98.70;;;;;;6234775;23;20025;-77
2020/12/26 10:47:47;;;;;;;5.32;2.35;;;7.30;97.80;;;;;;6209751;23;20240;-77
2020/12/26 10:50:13;;;;;;;2.67;2.47;;;7.40;98.20;;;;;;6235710;23;20313;-77
2020/12/26 10:52:38;;;;;;;2.28;1.83;;;7.50;98.80;;;;;;6209208;23;20012;-77
2020/12/26 10:55:04;;;;;;;2.70;2.50;;;7.50;97.90;;;;;;6209747;23;20470;-77
2020/12/26 10:57:30;;;;;;;2.17;2.08;;;7.60;98.80;;;;;;6211096;23;20032;-77
2020/12/26 10:59:55;;;;;;;1.67;1.58;;;7.60;98.50;;;;;;6239164;23;19996;-76
2020/12/26 11:02:21;;;;;;;2.80;2.60;;;7.60;98.10;;;;;;6211428;23;20040;-77
2020/12/26 11:04:47;;;;;;;5.05;2.67;;;7.70;99.00;;;;;;6211250;23;20008;-77
2020/12/26 11:07:12;;;;;;;2.70;2.20;;;7.80;99.40;;;;;;6212133;23;20069;-77
2020/12/26 11:09:38;;;;;;;2.63;2.38;;;7.70;98.10;;;;;;6238094;23;20089;-77
2020/12/26 11:12:04;;;;;;;3.00;2.17;;;7.70;97.80;;;;;;6212865;23;20011;-92
2020/12/26 11:14:30;;;;;;;2.40;2.20;;;7.70;98.50;;;;;;6241938;23;20027;-94
2020/12/26 11:16:55;;;;;;;2.50;2.30;;;7.70;97.40;;;;;;6215337;23;20031;-92
2020/12/26 11:19:21;;;;;;;2.72;2.53;;;7.60;97.10;;;;;;6217762;23;20008;-92
2020/12/26 11:21:51;;;;;;;2.88;2.67;;;7.70;98.70;;;;;;6217492;23;20011;-91
2020/12/26 11:24:17;;;;;;;2.80;2.60;;;7.80;98.10;;;;;;6218736;23;20062;-92
2020/12/26 11:26:43;;;;;;;2.95;2.65;;;7.80;98.10;;;;;;6246385;23;20382;-92
2020/12/26 11:29:09;;;;;;;4.95;2.50;;;7.80;98.30;;;;;;6245550;23;20005;-91
2020/12/26 11:31:34;;;;;;;2.40;2.22;;;7.80;98.40;;;;;;6246157;23;20523;-92
2020/12/26 11:34:00;;;;;;;4.70;2.22;;;7.90;98.30;;;;;;6219356;23;20047;-91
2020/12/26 11:36:27;;;;;;;2.15;1.95;;;7.90;97.60;;;;;;6218599;23;20377;-86
2020/12/26 11:38:54;;;;;;;2.38;2.28;;;7.90;97.80;;;;;;6218701;23;20004;-90
2020/12/26 11:41:27;;;;;;;2.60;1.90;;;7.90;96.40;;;;;;6216616;23;20008;-82
2020/12/26 11:43:54;;;;;;;1.85;1.75;;;7.90;96.70;;;;;;6215550;23;20077;-82
2020/12/26 11:46:20;;;;;;;2.53;2.30;;;8.00;96.60;;;;;;6215459;23;20087;-82
2020/12/26 11:48:46;;;;;;;2.15;1.92;;;8.00;96.50;;;;;;6214785;23;20016;-82
2020/12/26 11:51:12;;;;;;;1.90;1.80;;;8.00;96.10;;;;;;6242155;23;20004;-83
2020/12/26 11:53:39;;;;;;;3.50;1.70;;;8.00;96.50;;;;;;6215241;23;20000;-78
2020/12/26 11:56:12;;;;;;;1.90;1.75;;;8.10;96.50;;;;;;6241723;23;20000;-78
2020/12/26 11:58:38;;;;;;;2.13;1.77;;;8.20;95.80;;;;;;6215144;23;20004;-77
2020/12/26 12:01:05;;;;;;;2.03;1.92;;;8.20;95.70;;;;;;6218246;23;20050;-77
2020/12/26 12:03:32;;;;;;;2.50;2.30;;;8.30;96.20;;;;;;6218400;23;20012;-77
2020/12/26 12:05:58;;;;;;;1.80;1.70;;;8.30;96.50;;;;;;6218176;23;20011;-77
2020/12/26 12:08:24;;;;;;;1.90;1.80;;;8.40;96.00;;;;;;6246374;23;20004;-77
2020/12/26 12:10:49;;;;;;;1.70;1.60;;;8.40;93.90;;;;;;6219923;23;20046;-77
2020/12/26 12:13:15;;;;;;;3.35;2.92;;;8.40;94.30;;;;;;6246975;23;20007;-77
2020/12/26 12:15:41;;;;;;;1.55;1.38;;;8.40;94.00;;;;;;6216886;23;20083;-77
2020/12/26 12:18:07;;;;;;;3.92;1.48;;;8.40;94.00;;;;;;6216616;23;20007;-77
2020/12/26 12:20:33;;;;;;;1.90;1.80;;;8.50;93.20;;;;;;6217105;23;20000;-77
2020/12/26 12:23:00;;;;;;;1.35;1.35;;;8.50;92.70;;;;;;6244116;23;20004;-78
2020/12/26 12:25:27;;;;;;;1.50;1.40;;;8.50;92.70;;;;;;6216627;23;20390;-78
2020/12/26 12:27:53;;;;;;;1.90;1.63;;;8.50;91.90;;;;;;6244263;23;20004;-77
2020/12/26 12:30:19;;;;;;;2.17;1.98;;;8.50;90.10;;;;;;6216444;23;20015;-77
2020/12/26 12:32:45;;;;;;;1.40;1.30;;;8.40;90.70;;;;;;6243040;23;20004;-77
2020/12/26 12:35:11;;;;;;;2.25;1.65;;;8.50;91.90;;;;;;6243590;23;20015;-77
2020/12/26 12:37:37;;;;;;;1.50;1.40;;;8.50;91.30;;;;;;6216209;23;20383;-78
2020/12/26 12:40:07;;;;;;;10.27;4.72;;;8.50;92.00;;;;;;6216387;23;20007;-77
2020/12/26 12:42:33;;;;;;;1.58;1.48;;;8.60;91.70;;;;;;6243805;23;20074;-77
2020/12/26 12:44:59;;;;;;;2.25;1.83;;;8.50;91.60;;;;;;6216334;23;20011;-77
2020/12/26 12:47:25;;;;;;;2.10;1.70;;;8.50;89.00;;;;;;6216719;23;20015;-78
2020/12/26 12:49:51;;;;;;;1.60;1.50;;;8.50;90.10;;;;;;6217164;23;20000;-77
2020/12/26 12:52:20;;;;;;;2.28;1.60;;;8.50;89.90;;;;;;6243110;23;20004;-77
2020/12/26 12:54:46;;;;;;;5.53;1.70;;;8.60;90.80;;;;;;6243323;23;20004;-77
2020/12/26 12:57:12;;;;;;;1.88;1.70;;;8.50;90.40;;;;;;6243974;23;20039;-77
2020/12/26 12:59:39;;;;;;;1.80;1.70;;;8.60;90.40;;;;;;6216359;23;20011;-76